sensor_id;sensor_type;location;lat;lon;timestamp;P1;durP1;ratioP1;P2;durP2;ratioP2
3997;SDS011;61314;53.444;9.902;2022-12-07T00:00:00;42.47;;;24.30;;
3997;SDS011;61314;53.444;9.902;2022-12-07T00:02:27;47.95;;;25.35;;
3997;SDS011;61314;53.444;9.902;2022-12-07T00:04:54;53.95;;;24.95;;
3997;SDS011;61314;53.444;9.902;2022-12-07T00:07:21;46.05;;;22.25;;
3997;SDS011;61314;53.444;9.902;2022-12-07T00:09:53;43.30;;;23.67;;
3997;SDS011;61314;53.444;9.902;2022-12-07T00:12:20;38.60;;;21.75;;
3997;SDS011;61314;53.444;9.902;2022-12-07T00:14:47;36.60;;;21.55;;
3997;SDS011;61314;53.444;9.902;2022-12-07T00:17:14;44.15;;;23.00;;
3997;SDS011;61314;53.444;9.902;2022-12-07T00:19:40;43.85;;;22.85;;
3997;SDS011;61314;53.444;9.902;2022-12-07T00:22:07;45.50;;;22.63;;
3997;SDS011;61314;53.444;9.902;2022-12-07T00:24:34;41.47;;;20.85;;
3997;SDS011;61314;53.444;9.902;2022-12-07T00:27:01;38.92;;;21.10;;
3997;SDS011;61314;53.444;9.902;2022-12-07T00:29:28;39.55;;;20.67;;
3997;SDS011;61314;53.444;9.902;2022-12-07T00:31:55;35.63;;;20.80;;
3997;SDS011;61314;53.444;9.902;2022-12-07T00:34:22;33.38;;;20.60;;
3997;SDS011;61314;53.444;9.902;2022-12-07T00:36:49;40.70;;;20.77;;
3997;SDS011;61314;53.444;9.902;2022-12-07T00:39:17;39.03;;;20.85;;
3997;SDS011;61314;53.444;9.902;2022-12-07T00:41:44;35.08;;;18.95;;
3997;SDS011;61314;53.444;9.902;2022-12-07T00:44:11;43.08;;;23.27;;
3997;SDS011;61314;53.444;9.902;2022-12-07T00:46:38;35.40;;;20.20;;
3997;SDS011;61314;53.444;9.902;2022-12-07T00:49:05;41.80;;;19.80;;
3997;SDS011;61314;53.444;9.902;2022-12-07T00:51:32;31.98;;;17.45;;
3997;SDS011;61314;53.444;9.902;2022-12-07T00:53:59;40.42;;;19.38;;
3997;SDS011;61314;53.444;9.902;2022-12-07T00:56:26;32.60;;;18.45;;
3997;SDS011;61314;53.444;9.902;2022-12-07T00:58:54;32.50;;;18.20;;
3997;SDS011;61314;53.444;9.902;2022-12-07T01:01:22;42.92;;;19.40;;
3997;SDS011;61314;53.444;9.902;2022-12-07T01:03:50;36.55;;;19.48;;
3997;SDS011;61314;53.444;9.902;2022-12-07T01:06:17;33.80;;;18.60;;
3997;SDS011;61314;53.444;9.902;2022-12-07T01:08:45;26.33;;;16.52;;
3997;SDS011;61314;53.444;9.902;2022-12-07T01:11:13;39.90;;;19.33;;
3997;SDS011;61314;53.444;9.902;2022-12-07T01:13:41;39.85;;;19.05;;
3997;SDS011;61314;53.444;9.902;2022-12-07T01:16:08;32.42;;;18.58;;
3997;SDS011;61314;53.444;9.902;2022-12-07T01:18:36;40.85;;;18.60;;
3997;SDS011;61314;53.444;9.902;2022-12-07T01:23:30;39.22;;;18.35;;
3997;SDS011;61314;53.444;9.902;2022-12-07T01:25:58;30.15;;;17.05;;
3997;SDS011;61314;53.444;9.902;2022-12-07T01:28:26;30.23;;;16.80;;
3997;SDS011;61314;53.444;9.902;2022-12-07T01:31:00;43.40;;;19.15;;
3997;SDS011;61314;53.444;9.902;2022-12-07T01:33:28;30.67;;;18.65;;
3997;SDS011;61314;53.444;9.902;2022-12-07T01:36:05;32.90;;;18.80;;
3997;SDS011;61314;53.444;9.902;2022-12-07T01:38:33;29.45;;;15.55;;
3997;SDS011;61314;53.444;9.902;2022-12-07T01:41:00;38.13;;;15.15;;
3997;SDS011;61314;53.444;9.902;2022-12-07T01:43:29;27.98;;;13.77;;
3997;SDS011;61314;53.444;9.902;2022-12-07T01:45:56;24.77;;;14.38;;
3997;SDS011;61314;53.444;9.902;2022-12-07T01:48:28;22.98;;;13.48;;
3997;SDS011;61314;53.444;9.902;2022-12-07T01:50:56;32.28;;;15.13;;
3997;SDS011;61314;53.444;9.902;2022-12-07T01:53:24;26.25;;;14.45;;
3997;SDS011;61314;53.444;9.902;2022-12-07T01:55:52;29.95;;;15.15;;
3997;SDS011;61314;53.444;9.902;2022-12-07T01:58:20;25.33;;;13.60;;
3997;SDS011;61314;53.444;9.902;2022-12-07T02:00:47;30.20;;;13.98;;
3997;SDS011;61314;53.444;9.902;2022-12-07T02:03:22;30.15;;;15.10;;
3997;SDS011;61314;53.444;9.902;2022-12-07T02:05:49;28.92;;;14.27;;
3997;SDS011;61314;53.444;9.902;2022-12-07T02:08:17;25.38;;;14.18;;
3997;SDS011;61314;53.444;9.902;2022-12-07T02:10:44;33.30;;;14.90;;
3997;SDS011;61314;53.444;9.902;2022-12-07T02:13:30;22.75;;;13.75;;
3997;SDS011;61314;53.444;9.902;2022-12-07T02:16:04;26.05;;;14.73;;
3997;SDS011;61314;53.444;9.902;2022-12-07T02:18:37;40.90;;;14.07;;
3997;SDS011;61314;53.444;9.902;2022-12-07T02:21:25;27.70;;;14.18;;
3997;SDS011;61314;53.444;9.902;2022-12-07T02:26:44;29.77;;;11.85;;
3997;SDS011;61314;53.444;9.902;2022-12-07T02:29:22;22.17;;;11.90;;
3997;SDS011;61314;53.444;9.902;2022-12-07T02:34:47;18.10;;;9.88;;
3997;SDS011;61314;53.444;9.902;2022-12-07T02:37:18;25.33;;;10.68;;
3997;SDS011;61314;53.444;9.902;2022-12-07T02:39:48;13.35;;;9.63;;
3997;SDS011;61314;53.444;9.902;2022-12-07T02:42:19;18.00;;;9.60;;
3997;SDS011;61314;53.444;9.902;2022-12-07T02:44:50;17.70;;;9.63;;
3997;SDS011;61314;53.444;9.902;2022-12-07T02:47:17;13.70;;;7.93;;
3997;SDS011;61314;53.444;9.902;2022-12-07T02:49:46;14.98;;;7.85;;
3997;SDS011;61314;53.444;9.902;2022-12-07T02:52:13;14.07;;;7.47;;
3997;SDS011;61314;53.444;9.902;2022-12-07T02:54:40;16.90;;;8.65;;
3997;SDS011;61314;53.444;9.902;2022-12-07T02:59:46;19.20;;;8.23;;
3997;SDS011;61314;53.444;9.902;2022-12-07T03:02:18;14.75;;;7.95;;
3997;SDS011;61314;53.444;9.902;2022-12-07T03:07:26;11.25;;;7.38;;
3997;SDS011;61314;53.444;9.902;2022-12-07T03:10:01;11.40;;;7.75;;
3997;SDS011;61314;53.444;9.902;2022-12-07T03:12:36;16.67;;;9.02;;
3997;SDS011;61314;53.444;9.902;2022-12-07T03:15:17;13.80;;;7.50;;
3997;SDS011;61314;53.444;9.902;2022-12-07T03:17:45;26.30;;;7.15;;
3997;SDS011;61314;53.444;9.902;2022-12-07T03:20:13;10.45;;;6.95;;
3997;SDS011;61314;53.444;9.902;2022-12-07T03:22:41;10.98;;;6.75;;
3997;SDS011;61314;53.444;9.902;2022-12-07T03:25:10;12.55;;;6.82;;
3997;SDS011;61314;53.444;9.902;2022-12-07T03:27:40;10.13;;;5.75;;
3997;SDS011;61314;53.444;9.902;2022-12-07T03:30:16;12.98;;;6.05;;
3997;SDS011;61314;53.444;9.902;2022-12-07T03:33:03;11.48;;;5.88;;
3997;SDS011;61314;53.444;9.902;2022-12-07T03:35:37;15.43;;;6.13;;
3997;SDS011;61314;53.444;9.902;2022-12-07T03:38:11;13.38;;;5.55;;
3997;SDS011;61314;53.444;9.902;2022-12-07T03:40:54;10.70;;;5.00;;
3997;SDS011;61314;53.444;9.902;2022-12-07T03:43:25;13.13;;;5.18;;
3997;SDS011;61314;53.444;9.902;2022-12-07T03:48:25;9.20;;;3.83;;
3997;SDS011;61314;53.444;9.902;2022-12-07T03:51:10;12.45;;;4.45;;
3997;SDS011;61314;53.444;9.902;2022-12-07T03:53:42;7.18;;;3.72;;
3997;SDS011;61314;53.444;9.902;2022-12-07T03:56:11;6.50;;;3.72;;
3997;SDS011;61314;53.444;9.902;2022-12-07T03:58:38;9.70;;;3.97;;
3997;SDS011;61314;53.444;9.902;2022-12-07T04:01:06;11.32;;;4.20;;
3997;SDS011;61314;53.444;9.902;2022-12-07T04:03:33;4.78;;;3.53;;
3997;SDS011;61314;53.444;9.902;2022-12-07T04:06:00;9.13;;;3.55;;
3997;SDS011;61314;53.444;9.902;2022-12-07T04:08:28;8.15;;;3.38;;
3997;SDS011;61314;53.444;9.902;2022-12-07T04:10:55;13.02;;;3.17;;
3997;SDS011;61314;53.444;9.902;2022-12-07T04:13:22;8.65;;;2.95;;
3997;SDS011;61314;53.444;9.902;2022-12-07T04:15:49;7.28;;;3.90;;
3997;SDS011;61314;53.444;9.902;2022-12-07T04:18:16;4.80;;;2.58;;
3997;SDS011;61314;53.444;9.902;2022-12-07T04:20:43;4.93;;;2.28;;
3997;SDS011;61314;53.444;9.902;2022-12-07T04:23:10;18.52;;;3.08;;
3997;SDS011;61314;53.444;9.902;2022-12-07T04:25:37;4.45;;;2.90;;
3997;SDS011;61314;53.444;9.902;2022-12-07T04:28:04;6.63;;;2.90;;
3997;SDS011;61314;53.444;9.902;2022-12-07T04:30:31;4.82;;;3.28;;
3997;SDS011;61314;53.444;9.902;2022-12-07T04:32:58;3.05;;;2.47;;
3997;SDS011;61314;53.444;9.902;2022-12-07T04:35:24;10.63;;;2.78;;
3997;SDS011;61314;53.444;9.902;2022-12-07T04:37:51;7.82;;;2.67;;
3997;SDS011;61314;53.444;9.902;2022-12-07T04:40:18;5.72;;;3.08;;
3997;SDS011;61314;53.444;9.902;2022-12-07T04:42:45;7.82;;;3.10;;
3997;SDS011;61314;53.444;9.902;2022-12-07T04:45:12;7.63;;;3.28;;
3997;SDS011;61314;53.444;9.902;2022-12-07T04:47:39;8.43;;;2.90;;
3997;SDS011;61314;53.444;9.902;2022-12-07T04:50:06;4.53;;;2.72;;
3997;SDS011;61314;53.444;9.902;2022-12-07T04:52:33;5.00;;;3.13;;
3997;SDS011;61314;53.444;9.902;2022-12-07T04:55:00;3.90;;;2.80;;
3997;SDS011;61314;53.444;9.902;2022-12-07T04:57:27;5.03;;;3.20;;
3997;SDS011;61314;53.444;9.902;2022-12-07T04:59:54;4.00;;;3.30;;
3997;SDS011;61314;53.444;9.902;2022-12-07T05:02:21;3.08;;;2.80;;
3997;SDS011;61314;53.444;9.902;2022-12-07T05:04:48;3.55;;;2.90;;
3997;SDS011;61314;53.444;9.902;2022-12-07T05:07:15;5.15;;;3.28;;
3997;SDS011;61314;53.444;9.902;2022-12-07T05:09:42;5.05;;;3.05;;
3997;SDS011;61314;53.444;9.902;2022-12-07T05:12:09;7.10;;;3.60;;
3997;SDS011;61314;53.444;9.902;2022-12-07T05:14:36;2.70;;;2.50;;
3997;SDS011;61314;53.444;9.902;2022-12-07T05:17:03;3.53;;;2.95;;
3997;SDS011;61314;53.444;9.902;2022-12-07T05:19:30;3.25;;;2.45;;
3997;SDS011;61314;53.444;9.902;2022-12-07T05:21:57;4.70;;;3.20;;
3997;SDS011;61314;53.444;9.902;2022-12-07T05:24:24;6.38;;;2.80;;
3997;SDS011;61314;53.444;9.902;2022-12-07T05:26:51;7.63;;;2.42;;
3997;SDS011;61314;53.444;9.902;2022-12-07T05:29:18;4.57;;;2.78;;
3997;SDS011;61314;53.444;9.902;2022-12-07T05:31:45;3.85;;;2.78;;
3997;SDS011;61314;53.444;9.902;2022-12-07T05:34:12;4.85;;;2.88;;
3997;SDS011;61314;53.444;9.902;2022-12-07T05:36:39;8.23;;;2.85;;
3997;SDS011;61314;53.444;9.902;2022-12-07T05:39:07;3.20;;;3.00;;
3997;SDS011;61314;53.444;9.902;2022-12-07T05:41:34;2.90;;;2.65;;
3997;SDS011;61314;53.444;9.902;2022-12-07T05:44:20;3.50;;;3.20;;
3997;SDS011;61314;53.444;9.902;2022-12-07T05:46:47;4.72;;;2.70;;
3997;SDS011;61314;53.444;9.902;2022-12-07T05:49:14;13.57;;;2.63;;
3997;SDS011;61314;53.444;9.902;2022-12-07T05:51:41;3.92;;;2.60;;
3997;SDS011;61314;53.444;9.902;2022-12-07T05:54:08;3.10;;;2.55;;
3997;SDS011;61314;53.444;9.902;2022-12-07T05:56:35;3.72;;;3.28;;
3997;SDS011;61314;53.444;9.902;2022-12-07T05:59:02;5.30;;;2.80;;
3997;SDS011;61314;53.444;9.902;2022-12-07T06:01:55;6.78;;;3.60;;
3997;SDS011;61314;53.444;9.902;2022-12-07T06:04:24;3.30;;;2.95;;
3997;SDS011;61314;53.444;9.902;2022-12-07T06:06:51;3.42;;;2.92;;
3997;SDS011;61314;53.444;9.902;2022-12-07T06:09:19;6.45;;;3.10;;
3997;SDS011;61314;53.444;9.902;2022-12-07T06:11:46;5.90;;;3.00;;
3997;SDS011;61314;53.444;9.902;2022-12-07T06:14:33;8.50;;;4.22;;
3997;SDS011;61314;53.444;9.902;2022-12-07T06:17:00;5.05;;;3.22;;
3997;SDS011;61314;53.444;9.902;2022-12-07T06:19:27;3.42;;;3.05;;
3997;SDS011;61314;53.444;9.902;2022-12-07T06:21:54;9.68;;;3.40;;
3997;SDS011;61314;53.444;9.902;2022-12-07T06:24:21;6.45;;;3.70;;
3997;SDS011;61314;53.444;9.902;2022-12-07T06:26:49;4.35;;;3.05;;
3997;SDS011;61314;53.444;9.902;2022-12-07T06:29:16;4.28;;;2.60;;
3997;SDS011;61314;53.444;9.902;2022-12-07T06:31:43;5.40;;;3.00;;
3997;SDS011;61314;53.444;9.902;2022-12-07T06:34:12;14.25;;;3.70;;
3997;SDS011;61314;53.444;9.902;2022-12-07T06:36:39;12.00;;;3.28;;
3997;SDS011;61314;53.444;9.902;2022-12-07T06:39:07;3.10;;;2.67;;
3997;SDS011;61314;53.444;9.902;2022-12-07T06:41:38;16.10;;;3.05;;
3997;SDS011;61314;53.444;9.902;2022-12-07T06:44:05;4.85;;;2.65;;
3997;SDS011;61314;53.444;9.902;2022-12-07T06:46:33;6.10;;;2.83;;
3997;SDS011;61314;53.444;9.902;2022-12-07T06:49:01;3.28;;;3.08;;
3997;SDS011;61314;53.444;9.902;2022-12-07T06:51:28;12.63;;;4.20;;
3997;SDS011;61314;53.444;9.902;2022-12-07T06:53:55;3.92;;;2.58;;
3997;SDS011;61314;53.444;9.902;2022-12-07T06:56:22;6.78;;;2.88;;
3997;SDS011;61314;53.444;9.902;2022-12-07T06:58:49;3.05;;;2.75;;
3997;SDS011;61314;53.444;9.902;2022-12-07T07:01:17;4.88;;;3.05;;
3997;SDS011;61314;53.444;9.902;2022-12-07T07:03:45;7.90;;;3.33;;
3997;SDS011;61314;53.444;9.902;2022-12-07T07:06:13;5.85;;;2.10;;
3997;SDS011;61314;53.444;9.902;2022-12-07T07:08:40;6.28;;;2.50;;
3997;SDS011;61314;53.444;9.902;2022-12-07T07:11:07;2.53;;;2.33;;
3997;SDS011;61314;53.444;9.902;2022-12-07T07:13:35;5.03;;;2.85;;
3997;SDS011;61314;53.444;9.902;2022-12-07T07:16:02;17.63;;;3.95;;
3997;SDS011;61314;53.444;9.902;2022-12-07T07:18:29;2.83;;;2.53;;
3997;SDS011;61314;53.444;9.902;2022-12-07T07:20:56;2.03;;;1.80;;
3997;SDS011;61314;53.444;9.902;2022-12-07T07:23:23;6.05;;;2.63;;
3997;SDS011;61314;53.444;9.902;2022-12-07T07:25:50;6.45;;;2.53;;
3997;SDS011;61314;53.444;9.902;2022-12-07T07:28:17;5.35;;;2.28;;
3997;SDS011;61314;53.444;9.902;2022-12-07T07:30:44;10.93;;;2.92;;
3997;SDS011;61314;53.444;9.902;2022-12-07T07:33:12;6.15;;;2.20;;
3997;SDS011;61314;53.444;9.902;2022-12-07T07:35:39;7.93;;;2.83;;
3997;SDS011;61314;53.444;9.902;2022-12-07T07:38:07;6.22;;;3.10;;
3997;SDS011;61314;53.444;9.902;2022-12-07T07:40:34;6.85;;;2.20;;
3997;SDS011;61314;53.444;9.902;2022-12-07T07:43:01;3.97;;;2.58;;
3997;SDS011;61314;53.444;9.902;2022-12-07T07:45:28;10.88;;;2.75;;
3997;SDS011;61314;53.444;9.902;2022-12-07T07:47:55;6.43;;;2.33;;
3997;SDS011;61314;53.444;9.902;2022-12-07T07:50:22;3.53;;;2.60;;
3997;SDS011;61314;53.444;9.902;2022-12-07T07:52:49;9.98;;;2.72;;
3997;SDS011;61314;53.444;9.902;2022-12-07T07:55:16;4.78;;;2.30;;
3997;SDS011;61314;53.444;9.902;2022-12-07T07:57:43;11.32;;;2.60;;
3997;SDS011;61314;53.444;9.902;2022-12-07T08:00:19;3.65;;;2.80;;
3997;SDS011;61314;53.444;9.902;2022-12-07T08:02:46;7.03;;;1.80;;
3997;SDS011;61314;53.444;9.902;2022-12-07T08:05:13;8.05;;;2.60;;
3997;SDS011;61314;53.444;9.902;2022-12-07T08:07:40;3.35;;;2.50;;
3997;SDS011;61314;53.444;9.902;2022-12-07T08:10:09;11.13;;;2.38;;
3997;SDS011;61314;53.444;9.902;2022-12-07T08:12:37;9.10;;;3.05;;
3997;SDS011;61314;53.444;9.902;2022-12-07T08:15:25;1.85;;;1.75;;
3997;SDS011;61314;53.444;9.902;2022-12-07T08:17:52;2.15;;;1.83;;
3997;SDS011;61314;53.444;9.902;2022-12-07T08:20:19;3.53;;;2.92;;
3997;SDS011;61314;53.444;9.902;2022-12-07T08:22:46;3.50;;;2.65;;
3997;SDS011;61314;53.444;9.902;2022-12-07T08:25:13;13.02;;;2.88;;
3997;SDS011;61314;53.444;9.902;2022-12-07T08:27:40;5.10;;;2.70;;
3997;SDS011;61314;53.444;9.902;2022-12-07T08:30:07;4.40;;;2.15;;
3997;SDS011;61314;53.444;9.902;2022-12-07T08:32:34;3.13;;;2.85;;
3997;SDS011;61314;53.444;9.902;2022-12-07T08:35:01;5.22;;;2.55;;
3997;SDS011;61314;53.444;9.902;2022-12-07T08:37:28;5.05;;;2.83;;
3997;SDS011;61314;53.444;9.902;2022-12-07T08:39:55;5.45;;;2.70;;
3997;SDS011;61314;53.444;9.902;2022-12-07T08:42:22;10.98;;;4.00;;
3997;SDS011;61314;53.444;9.902;2022-12-07T08:44:53;7.68;;;2.80;;
3997;SDS011;61314;53.444;9.902;2022-12-07T08:47:20;5.40;;;2.97;;
3997;SDS011;61314;53.444;9.902;2022-12-07T08:49:47;6.28;;;2.42;;
3997;SDS011;61314;53.444;9.902;2022-12-07T08:52:15;6.10;;;2.75;;
3997;SDS011;61314;53.444;9.902;2022-12-07T08:54:42;17.25;;;2.70;;
3997;SDS011;61314;53.444;9.902;2022-12-07T08:57:10;10.05;;;3.45;;
3997;SDS011;61314;53.444;9.902;2022-12-07T08:59:37;6.97;;;2.60;;
3997;SDS011;61314;53.444;9.902;2022-12-07T09:02:05;3.47;;;2.65;;
3997;SDS011;61314;53.444;9.902;2022-12-07T09:04:32;6.65;;;2.60;;
3997;SDS011;61314;53.444;9.902;2022-12-07T09:06:59;2.95;;;2.75;;
3997;SDS011;61314;53.444;9.902;2022-12-07T09:09:26;3.28;;;2.72;;
3997;SDS011;61314;53.444;9.902;2022-12-07T09:11:53;5.78;;;2.30;;
3997;SDS011;61314;53.444;9.902;2022-12-07T09:14:21;6.35;;;2.95;;
3997;SDS011;61314;53.444;9.902;2022-12-07T09:16:48;4.75;;;3.15;;
3997;SDS011;61314;53.444;9.902;2022-12-07T09:19:15;3.63;;;2.90;;
3997;SDS011;61314;53.444;9.902;2022-12-07T09:21:42;6.75;;;3.05;;
3997;SDS011;61314;53.444;9.902;2022-12-07T09:24:09;5.65;;;2.80;;
3997;SDS011;61314;53.444;9.902;2022-12-07T09:26:35;7.35;;;3.28;;
3997;SDS011;61314;53.444;9.902;2022-12-07T09:29:05;6.50;;;3.17;;
3997;SDS011;61314;53.444;9.902;2022-12-07T09:31:35;8.13;;;2.80;;
3997;SDS011;61314;53.444;9.902;2022-12-07T09:34:02;10.02;;;2.70;;
3997;SDS011;61314;53.444;9.902;2022-12-07T09:36:30;8.45;;;3.13;;
3997;SDS011;61314;53.444;9.902;2022-12-07T09:38:57;10.27;;;2.65;;
3997;SDS011;61314;53.444;9.902;2022-12-07T09:41:25;4.32;;;2.60;;
3997;SDS011;61314;53.444;9.902;2022-12-07T09:43:55;4.90;;;2.08;;
3997;SDS011;61314;53.444;9.902;2022-12-07T09:46:32;10.80;;;2.30;;
3997;SDS011;61314;53.444;9.902;2022-12-07T09:49:01;8.90;;;2.42;;
3997;SDS011;61314;53.444;9.902;2022-12-07T09:51:28;4.55;;;2.00;;
3997;SDS011;61314;53.444;9.902;2022-12-07T09:53:56;10.63;;;1.88;;
3997;SDS011;61314;53.444;9.902;2022-12-07T09:56:24;6.88;;;1.67;;
3997;SDS011;61314;53.444;9.902;2022-12-07T09:58:54;10.35;;;1.70;;
3997;SDS011;61314;53.444;9.902;2022-12-07T10:01:21;8.48;;;1.25;;
3997;SDS011;61314;53.444;9.902;2022-12-07T10:03:50;3.03;;;0.95;;
3997;SDS011;61314;53.444;9.902;2022-12-07T10:06:17;7.50;;;1.25;;
3997;SDS011;61314;53.444;9.902;2022-12-07T10:08:45;5.18;;;1.00;;
3997;SDS011;61314;53.444;9.902;2022-12-07T10:11:12;8.18;;;1.35;;
3997;SDS011;61314;53.444;9.902;2022-12-07T10:13:42;2.88;;;1.27;;
3997;SDS011;61314;53.444;9.902;2022-12-07T10:18:50;2.75;;;1.75;;
3997;SDS011;61314;53.444;9.902;2022-12-07T10:21:18;8.45;;;1.45;;
3997;SDS011;61314;53.444;9.902;2022-12-07T10:29:13;8.50;;;1.30;;
3997;SDS011;61314;53.444;9.902;2022-12-07T10:31:41;2.10;;;1.20;;
3997;SDS011;61314;53.444;9.902;2022-12-07T10:34:22;5.18;;;1.40;;
3997;SDS011;61314;53.444;9.902;2022-12-07T10:36:53;5.13;;;1.58;;
3997;SDS011;61314;53.444;9.902;2022-12-07T10:39:21;1.90;;;1.05;;
3997;SDS011;61314;53.444;9.902;2022-12-07T10:41:55;2.40;;;1.00;;
3997;SDS011;61314;53.444;9.902;2022-12-07T10:44:24;2.30;;;1.25;;
3997;SDS011;61314;53.444;9.902;2022-12-07T10:46:54;4.35;;;1.55;;
3997;SDS011;61314;53.444;9.902;2022-12-07T10:49:36;3.05;;;1.50;;
3997;SDS011;61314;53.444;9.902;2022-12-07T10:58:04;5.45;;;1.50;;
3997;SDS011;61314;53.444;9.902;2022-12-07T11:00:29;14.10;;;2.47;;
3997;SDS011;61314;53.444;9.902;2022-12-07T11:03:03;12.73;;;2.50;;
3997;SDS011;61314;53.444;9.902;2022-12-07T11:05:40;8.50;;;2.00;;
3997;SDS011;61314;53.444;9.902;2022-12-07T11:08:16;3.10;;;1.65;;
3997;SDS011;61314;53.444;9.902;2022-12-07T11:10:52;14.27;;;1.38;;
3997;SDS011;61314;53.444;9.902;2022-12-07T11:13:25;5.40;;;1.67;;
3997;SDS011;61314;53.444;9.902;2022-12-07T11:16:02;11.45;;;2.10;;
3997;SDS011;61314;53.444;9.902;2022-12-07T11:18:38;13.75;;;2.00;;
3997;SDS011;61314;53.444;9.902;2022-12-07T11:23:46;8.60;;;1.80;;
3997;SDS011;61314;53.444;9.902;2022-12-07T11:34:14;5.82;;;1.30;;
3997;SDS011;61314;53.444;9.902;2022-12-07T11:36:48;4.18;;;1.65;;
3997;SDS011;61314;53.444;9.902;2022-12-07T11:39:36;7.55;;;1.80;;
3997;SDS011;61314;53.444;9.902;2022-12-07T11:42:10;14.05;;;1.83;;
3997;SDS011;61314;53.444;9.902;2022-12-07T11:54:54;8.73;;;1.98;;
3997;SDS011;61314;53.444;9.902;2022-12-07T11:57:25;13.95;;;1.75;;
3997;SDS011;61314;53.444;9.902;2022-12-07T11:59:59;8.75;;;1.70;;
3997;SDS011;61314;53.444;9.902;2022-12-07T12:02:32;2.58;;;0.90;;
3997;SDS011;61314;53.444;9.902;2022-12-07T12:07:34;4.00;;;1.30;;
3997;SDS011;61314;53.444;9.902;2022-12-07T12:10:37;6.35;;;1.60;;
3997;SDS011;61314;53.444;9.902;2022-12-07T12:13:44;3.55;;;2.13;;
3997;SDS011;61314;53.444;9.902;2022-12-07T12:19:11;12.05;;;1.80;;
3997;SDS011;61314;53.444;9.902;2022-12-07T12:21:38;4.32;;;1.50;;
3997;SDS011;61314;53.444;9.902;2022-12-07T12:24:09;6.88;;;1.45;;
3997;SDS011;61314;53.444;9.902;2022-12-07T12:26:38;6.05;;;1.63;;
3997;SDS011;61314;53.444;9.902;2022-12-07T12:29:06;10.18;;;1.73;;
3997;SDS011;61314;53.444;9.902;2022-12-07T12:34:04;10.55;;;1.75;;
3997;SDS011;61314;53.444;9.902;2022-12-07T12:51:44;8.13;;;2.25;;
3997;SDS011;61314;53.444;9.902;2022-12-07T12:54:22;5.88;;;2.20;;
3997;SDS011;61314;53.444;9.902;2022-12-07T13:01:54;4.65;;;2.90;;
3997;SDS011;61314;53.444;9.902;2022-12-07T13:04:32;12.82;;;2.30;;
3997;SDS011;61314;53.444;9.902;2022-12-07T13:07:02;5.82;;;2.20;;
3997;SDS011;61314;53.444;9.902;2022-12-07T13:09:30;4.40;;;2.10;;
3997;SDS011;61314;53.444;9.902;2022-12-07T13:12:11;9.23;;;1.98;;
3997;SDS011;61314;53.444;9.902;2022-12-07T13:14:41;12.68;;;2.58;;
3997;SDS011;61314;53.444;9.902;2022-12-07T13:20:00;3.85;;;1.27;;
3997;SDS011;61314;53.444;9.902;2022-12-07T13:27:48;9.50;;;2.00;;
3997;SDS011;61314;53.444;9.902;2022-12-07T13:30:23;14.45;;;2.38;;
3997;SDS011;61314;53.444;9.902;2022-12-07T13:32:54;8.15;;;1.70;;
3997;SDS011;61314;53.444;9.902;2022-12-07T13:41:32;8.88;;;2.33;;
3997;SDS011;61314;53.444;9.902;2022-12-07T13:43:48;8.70;;;1.83;;
3997;SDS011;61314;53.444;9.902;2022-12-07T13:46:17;9.13;;;2.20;;
3997;SDS011;61314;53.444;9.902;2022-12-07T13:48:49;5.38;;;1.50;;
3997;SDS011;61314;53.444;9.902;2022-12-07T13:51:18;7.40;;;2.28;;
3997;SDS011;61314;53.444;9.902;2022-12-07T13:53:53;8.23;;;1.40;;
3997;SDS011;61314;53.444;9.902;2022-12-07T13:56:26;11.73;;;2.45;;
3997;SDS011;61314;53.444;9.902;2022-12-07T13:59:01;15.10;;;1.85;;
3997;SDS011;61314;53.444;9.902;2022-12-07T14:01:30;7.32;;;1.60;;
3997;SDS011;61314;53.444;9.902;2022-12-07T14:10:05;6.05;;;1.52;;
3997;SDS011;61314;53.444;9.902;2022-12-07T14:12:49;4.90;;;1.27;;
3997;SDS011;61314;53.444;9.902;2022-12-07T14:15:23;1.50;;;1.40;;
3997;SDS011;61314;53.444;9.902;2022-12-07T14:17:54;8.00;;;2.25;;
3997;SDS011;61314;53.444;9.902;2022-12-07T14:23:00;7.30;;;1.95;;
3997;SDS011;61314;53.444;9.902;2022-12-07T14:25:44;9.48;;;1.85;;
3997;SDS011;61314;53.444;9.902;2022-12-07T14:28:27;5.65;;;2.10;;
3997;SDS011;61314;53.444;9.902;2022-12-07T14:30:58;10.40;;;1.70;;
3997;SDS011;61314;53.444;9.902;2022-12-07T14:33:26;10.23;;;2.60;;
3997;SDS011;61314;53.444;9.902;2022-12-07T14:35:53;6.07;;;2.13;;
3997;SDS011;61314;53.444;9.902;2022-12-07T14:38:21;7.40;;;1.40;;
3997;SDS011;61314;53.444;9.902;2022-12-07T14:40:48;4.65;;;1.50;;
3997;SDS011;61314;53.444;9.902;2022-12-07T14:43:15;9.80;;;2.15;;
3997;SDS011;61314;53.444;9.902;2022-12-07T14:45:43;2.70;;;2.50;;
3997;SDS011;61314;53.444;9.902;2022-12-07T14:48:13;15.13;;;2.60;;
3997;SDS011;61314;53.444;9.902;2022-12-07T14:51:01;4.05;;;2.03;;
3997;SDS011;61314;53.444;9.902;2022-12-07T14:53:50;7.38;;;1.83;;
3997;SDS011;61314;53.444;9.902;2022-12-07T14:56:22;6.85;;;2.72;;
3997;SDS011;61314;53.444;9.902;2022-12-07T14:58:49;12.93;;;1.92;;
3997;SDS011;61314;53.444;9.902;2022-12-07T15:01:16;4.53;;;1.85;;
3997;SDS011;61314;53.444;9.902;2022-12-07T15:03:43;6.60;;;2.00;;
3997;SDS011;61314;53.444;9.902;2022-12-07T15:06:10;9.90;;;1.70;;
3997;SDS011;61314;53.444;9.902;2022-12-07T15:08:41;6.30;;;2.20;;
3997;SDS011;61314;53.444;9.902;2022-12-07T15:11:10;2.85;;;1.55;;
3997;SDS011;61314;53.444;9.902;2022-12-07T15:13:38;7.35;;;1.67;;
3997;SDS011;61314;53.444;9.902;2022-12-07T15:16:24;16.65;;;1.80;;
3997;SDS011;61314;53.444;9.902;2022-12-07T15:18:50;5.55;;;2.40;;
3997;SDS011;61314;53.444;9.902;2022-12-07T15:21:37;19.52;;;2.22;;
3997;SDS011;61314;53.444;9.902;2022-12-07T15:24:04;4.88;;;1.95;;
3997;SDS011;61314;53.444;9.902;2022-12-07T15:26:31;8.43;;;1.60;;
3997;SDS011;61314;53.444;9.902;2022-12-07T15:28:57;7.43;;;1.92;;
3997;SDS011;61314;53.444;9.902;2022-12-07T15:31:24;3.38;;;1.85;;
3997;SDS011;61314;53.444;9.902;2022-12-07T15:34:10;2.30;;;1.20;;
3997;SDS011;61314;53.444;9.902;2022-12-07T15:36:37;5.85;;;2.10;;
3997;SDS011;61314;53.444;9.902;2022-12-07T15:39:03;5.22;;;2.03;;
3997;SDS011;61314;53.444;9.902;2022-12-07T15:41:39;6.97;;;2.35;;
3997;SDS011;61314;53.444;9.902;2022-12-07T15:44:06;10.55;;;2.70;;
3997;SDS011;61314;53.444;9.902;2022-12-07T15:46:56;4.40;;;2.28;;
3997;SDS011;61314;53.444;9.902;2022-12-07T15:49:23;3.45;;;2.72;;
3997;SDS011;61314;53.444;9.902;2022-12-07T15:51:50;6.28;;;2.65;;
3997;SDS011;61314;53.444;9.902;2022-12-07T15:54:23;9.80;;;5.05;;
3997;SDS011;61314;53.444;9.902;2022-12-07T15:56:51;6.90;;;4.10;;
3997;SDS011;61314;53.444;9.902;2022-12-07T15:59:19;7.15;;;4.50;;
3997;SDS011;61314;53.444;9.902;2022-12-07T16:01:45;10.30;;;5.20;;
3997;SDS011;61314;53.444;9.902;2022-12-07T16:04:12;8.57;;;4.50;;
3997;SDS011;61314;53.444;9.902;2022-12-07T16:06:39;10.63;;;5.38;;
3997;SDS011;61314;53.444;9.902;2022-12-07T16:09:06;6.32;;;4.75;;
3997;SDS011;61314;53.444;9.902;2022-12-07T16:11:33;8.77;;;5.68;;
3997;SDS011;61314;53.444;9.902;2022-12-07T16:14:00;8.55;;;6.43;;
3997;SDS011;61314;53.444;9.902;2022-12-07T16:16:27;12.57;;;7.45;;
3997;SDS011;61314;53.444;9.902;2022-12-07T16:18:54;14.02;;;8.35;;
3997;SDS011;61314;53.444;9.902;2022-12-07T16:21:21;14.55;;;8.65;;
3997;SDS011;61314;53.444;9.902;2022-12-07T16:23:50;14.75;;;9.35;;
3997;SDS011;61314;53.444;9.902;2022-12-07T16:26:18;17.13;;;7.22;;
3997;SDS011;61314;53.444;9.902;2022-12-07T16:28:49;11.98;;;7.32;;
3997;SDS011;61314;53.444;9.902;2022-12-07T16:31:18;11.20;;;6.60;;
3997;SDS011;61314;53.444;9.902;2022-12-07T16:33:47;9.20;;;6.07;;
3997;SDS011;61314;53.444;9.902;2022-12-07T16:36:15;9.48;;;6.15;;
3997;SDS011;61314;53.444;9.902;2022-12-07T16:39:03;11.75;;;6.22;;
3997;SDS011;61314;53.444;9.902;2022-12-07T16:41:30;12.98;;;6.28;;
3997;SDS011;61314;53.444;9.902;2022-12-07T16:43:57;7.82;;;5.20;;
3997;SDS011;61314;53.444;9.902;2022-12-07T16:46:29;10.65;;;5.55;;
3997;SDS011;61314;53.444;9.902;2022-12-07T16:48:57;7.95;;;4.95;;